Estación Meteorológica Peña el Pijo (Robertgarden) [ 12/17/17 01:29:19 CET ]

Fecha Hora Presion(HPa) Temp (°C) Humedad % Rocio (°C) Viento ( m/s) Direccion Lluvia 1Hora(mm) Lluvia 24H(mm) LLuvia Total(mm)
2017-Oct-06 01:01:53 1014.200 12.1 64 5.5         1457.65
2017-Oct-06 02:01:55 1014.200 12.1 64 5.5         1457.65
2017-Oct-06 03:01:40 1013.800 11.8 64 5.2         1457.65
2017-Oct-06 04:04:08 1013.300 11.7 65 5.3         1457.65
2017-Oct-06 05:01:48 1012.900 11.2 67 5.3         1457.65
2017-Oct-06 06:01:44 1012.700 11.8 66 5.6         1457.65
2017-Oct-06 07:01:46 1012.700 11.3 66 5.2         1457.65
2017-Oct-06 08:01:55 1012.700 10.5 68 4.8         1457.65
2017-Oct-06 09:01:46 1012.800 10.5 71 5.5         1457.65
2017-Oct-06 10:01:39 1012.700 18.3 55 9.0         1457.65
2017-Oct-06 11:01:43 1012.800 25.8 40 11.2         1457.65
2017-Oct-06 12:01:57 1013.000 28.1 32 9.8 0.2 WSW     1457.65
2017-Oct-06 13:01:58 1012.400 30.0 23 6.4         1457.65
2017-Oct-06 14:01:36 1011.900 29.6 21 4.9 0.4 SE     1457.65
2017-Oct-06 15:01:40 1011.500 30.5 21 5.6         1457.65
2017-Oct-06 16:01:37 1011.300 31.0 20 5.5         1457.65
2017-Oct-06 17:01:46 1011.000 30.4 20 5.0         1457.65
2017-Oct-06 18:01:47 1010.900 29.4 20 4.1         1457.65
2017-Oct-06 19:01:40 1010.800 25.6 20 1.0         1457.65
2017-Oct-06 20:01:49 1011.300 20.8 24 -0.7         1457.65
2017-Oct-06 21:01:36 1011.900 17.1 31 -0.2         1457.65
2017-Oct-06 22:01:46 1012.400 13.4 39 -0.3         1457.65
2017-Oct-06 23:01:36 1012.800 11.4 44 -0.5         1457.65

Temperatura Máxima:31°    Temperatura Mínima:10°
Presión Máxima:1014.200 Hpa    Presión Mínima:1010.800 Hpa


Volver